Time;durP1;ratioP1;P1;durP2;ratioP2;P2;SDS_P1;SDS_P2;PMS_P1;PMS_P2;Temp;Humidity;BMP_temperature;BMP_pressure;BME280_temperature;BME280_humidity;BME280_pressure;Samples;Min_cycle;Max_cycle;Signal;HPM_P1;HPM_P2
2020/12/31 00:00:10;;;;;;;20.30;6.80;;;;;;;-140.05;100.00;61859.38;5031578;28;20454;-63
2020/12/31 00:02:36;;;;;;;22.03;7.83;;;;;;;-140.05;100.00;61859.38;5032019;28;20476;-64
2020/12/31 00:05:03;;;;;;;21.97;6.13;;;;;;;-140.05;100.00;61859.38;5031568;28;20452;-64
2020/12/31 00:07:29;;;;;;;21.10;6.93;;;;;;;-140.05;100.00;61859.38;5031630;28;20479;-62
2020/12/31 00:09:56;;;;;;;22.30;6.40;;;;;;;-140.05;100.00;61859.38;5031452;28;20443;-61
2020/12/31 00:12:22;;;;;;;24.73;7.13;;;;;;;-140.05;100.00;61859.38;5031733;28;20441;-62
2020/12/31 00:14:48;;;;;;;18.00;6.37;;;;;;;-140.05;100.00;61859.38;5031297;28;20505;-63
2020/12/31 00:17:15;;;;;;;24.90;7.63;;;;;;;-140.05;100.00;61859.38;5031493;28;20455;-64
2020/12/31 00:19:41;;;;;;;22.27;6.90;;;;;;;-140.05;100.00;61859.38;5031398;28;20538;-64
2020/12/31 00:22:08;;;;;;;25.07;8.30;;;;;;;-140.05;100.00;61859.38;5031540;28;21028;-63
2020/12/31 00:24:34;;;;;;;24.87;8.33;;;;;;;-140.05;100.00;61859.38;5031186;28;20789;-65
2020/12/31 00:27:01;;;;;;;25.63;9.10;;;;;;;-140.05;100.00;61859.38;5031414;28;20450;-66
2020/12/31 00:29:27;;;;;;;20.47;6.83;;;;;;;-140.05;100.00;61859.38;5030926;28;20519;-62
2020/12/31 00:31:54;;;;;;;25.57;7.80;;;;;;;-140.05;100.00;61859.38;5031326;28;20841;-66
2020/12/31 00:34:20;;;;;;;24.97;7.70;;;;;;;-140.05;100.00;61859.38;5030925;28;20471;-66
2020/12/31 00:36:47;;;;;;;27.43;7.87;;;;;;;-140.05;100.00;61859.38;5031349;28;20446;-62
2020/12/31 00:39:14;;;;;;;20.63;6.57;;;;;;;-140.05;100.00;61859.38;5030977;28;20479;-62
2020/12/31 00:41:40;;;;;;;23.77;5.90;;;;;;;-140.05;100.00;61859.38;5031564;28;20431;-62
2020/12/31 00:44:11;;;;;;;24.23;6.07;;;;;;;-140.05;100.00;61859.38;5031097;28;20454;-64
2020/12/31 00:46:39;;;;;;;23.83;6.03;;;;;;;-140.05;100.00;61859.38;5030921;28;20567;-66
2020/12/31 00:49:06;;;;;;;28.23;7.23;;;;;;;-140.05;100.00;61859.38;5031517;28;20526;-61
2020/12/31 00:51:32;;;;;;;19.93;7.97;;;;;;;-140.05;100.00;61859.38;5031601;28;20505;-64
2020/12/31 00:54:02;;;;;;;19.87;4.70;;;;;;;-140.05;100.00;61859.38;5030719;28;20912;-61
2020/12/31 00:56:29;;;;;;;13.97;4.33;;;;;;;-140.05;100.00;61859.38;5046075;28;20454;-62
2020/12/31 00:58:55;;;;;;;16.70;5.50;;;;;;;-140.05;100.00;61859.38;5030625;28;20501;-65
2020/12/31 01:01:23;;;;;;;14.17;5.47;;;;;;;-140.05;100.00;61859.38;5029636;28;20440;-63
2020/12/31 01:03:50;;;;;;;16.00;4.30;;;;;;;-140.05;100.00;61859.38;5030239;28;20450;-63
2020/12/31 01:06:17;;;;;;;14.43;4.60;;;;;;;-140.05;100.00;61859.38;5030911;28;20443;-62
2020/12/31 01:08:43;;;;;;;17.73;5.40;;;;;;;-140.05;100.00;61859.38;5030842;28;20439;-66
2020/12/31 01:11:09;;;;;;;16.03;4.77;;;;;;;-140.05;100.00;61859.38;5030659;28;20580;-64
2020/12/31 01:13:36;;;;;;;15.87;4.30;;;;;;;-140.05;100.00;61859.38;5030868;28;20521;-63
2020/12/31 01:16:02;;;;;;;19.97;5.10;;;;;;;-140.05;100.00;61859.38;5030101;28;20444;-64
2020/12/31 01:18:29;;;;;;;14.83;4.40;;;;;;;-140.05;100.00;61859.38;5030192;28;20442;-63
2020/12/31 01:20:55;;;;;;;15.63;4.23;;;;;;;-140.05;100.00;61859.38;5030554;28;20525;-63
2020/12/31 01:23:21;;;;;;;10.57;3.87;;;;;;;-140.05;100.00;61859.38;5030998;28;20432;-63
2020/12/31 01:25:51;;;;;;;17.77;4.97;;;;;;;-140.05;100.00;61859.38;5030116;28;20570;-65
2020/12/31 01:28:17;;;;;;;16.57;4.83;;;;;;;-140.05;100.00;61859.38;5032918;28;20460;-63
2020/12/31 01:30:44;;;;;;;23.07;5.37;;;;;;;-140.05;100.00;61859.38;5033478;28;20551;-65
2020/12/31 01:33:11;;;;;;;25.63;7.70;;;;;;;-140.05;100.00;61859.38;5030291;28;20436;-62
2020/12/31 01:35:37;;;;;;;21.67;6.50;;;;;;;-140.05;100.00;61859.38;5029604;28;20934;-62
2020/12/31 01:38:04;;;;;;;20.47;6.33;;;;;;;-140.05;100.00;61859.38;5029965;28;20821;-63
2020/12/31 01:40:30;;;;;;;22.37;6.17;;;;;;;-140.05;100.00;61859.38;5029390;28;20451;-66
2020/12/31 01:42:57;;;;;;;23.73;6.90;;;;;;;-140.05;100.00;61859.38;5030118;28;20440;-65
2020/12/31 01:45:23;;;;;;;22.80;7.57;;;;;;;-140.05;100.00;61859.38;5029842;28;20889;-65
2020/12/31 01:47:49;;;;;;;23.73;7.40;;;;;;;-140.05;100.00;61859.38;5030101;28;20440;-63
2020/12/31 01:50:17;;;;;;;24.00;6.90;;;;;;;-140.05;100.00;61859.38;5029281;28;20854;-65
2020/12/31 01:52:46;;;;;;;20.97;6.07;;;;;;;-140.05;100.00;61859.38;5030301;28;20443;-64
2020/12/31 01:55:13;;;;;;;21.53;6.27;;;;;;;-140.05;100.00;61859.38;5029468;28;21008;-66
2020/12/31 01:57:41;;;;;;;22.37;6.13;;;;;;;-140.05;100.00;61859.38;5029475;28;21048;-63
2020/12/31 02:00:08;;;;;;;20.67;6.63;;;;;;;-140.05;100.00;61859.38;5029177;28;20440;-63
2020/12/31 02:02:38;;;;;;;22.17;6.53;;;;;;;-140.05;100.00;61859.38;5029508;28;20474;-63
2020/12/31 02:05:05;;;;;;;15.77;5.37;;;;;;;-140.05;100.00;61859.38;5029272;28;20501;-65
2020/12/31 02:07:31;;;;;;;19.30;5.60;;;;;;;-140.05;100.00;61859.38;5029815;28;20444;-64
2020/12/31 02:09:59;;;;;;;17.63;5.50;;;;;;;-140.05;100.00;61859.38;5028687;28;20523;-64
2020/12/31 02:12:25;;;;;;;20.13;6.70;;;;;;;-140.05;100.00;61859.38;5029420;28;20442;-63
2020/12/31 02:14:53;;;;;;;15.93;5.67;;;;;;;-140.05;100.00;61859.38;5028756;28;20448;-62
2020/12/31 02:17:19;;;;;;;19.50;5.97;;;;;;;-140.05;100.00;61859.38;5029309;28;20889;-60
2020/12/31 02:19:46;;;;;;;19.00;5.87;;;;;;;-140.05;100.00;61859.38;5028807;28;20459;-64
2020/12/31 02:22:13;;;;;;;22.63;6.80;;;;;;;-140.05;100.00;61859.38;5029595;28;20454;-63
2020/12/31 02:24:39;;;;;;;22.57;5.73;;;;;;;-140.05;100.00;61859.38;5028749;28;20467;-65
2020/12/31 02:27:06;;;;;;;27.13;7.53;;;;;;;-140.05;100.00;61859.38;5029628;28;20459;-61
2020/12/31 02:29:32;;;;;;;25.93;5.57;;;;;;;-140.05;100.00;61859.38;5029087;28;20516;-63
2020/12/31 02:31:59;;;;;;;21.87;6.53;;;;;;;-140.05;100.00;61859.38;5030175;28;20897;-62
2020/12/31 02:34:26;;;;;;;18.70;5.63;;;;;;;-140.05;100.00;61859.38;5029208;28;20478;-66
2020/12/31 02:36:52;;;;;;;23.93;6.37;;;;;;;-140.05;100.00;61859.38;5029216;28;20440;-65
2020/12/31 02:39:19;;;;;;;25.30;6.50;;;;;;;-140.05;100.00;61859.38;5029174;28;20515;-62
2020/12/31 02:41:46;;;;;;;17.90;6.80;;;;;;;-140.05;100.00;61859.38;5029873;28;21348;-64
2020/12/31 02:44:13;;;;;;;16.40;6.37;;;;;;;-140.05;100.00;61859.38;5029073;28;20447;-63
2020/12/31 02:46:40;;;;;;;19.57;5.43;;;;;;;-140.05;100.00;61859.38;5029524;28;20432;-65
2020/12/31 02:49:07;;;;;;;15.43;4.27;;;;;;;-140.05;100.00;61859.38;5029499;28;20436;-64
2020/12/31 02:51:35;;;;;;;15.73;4.90;;;;;;;-140.05;100.00;61859.38;5029718;28;20522;-64
2020/12/31 02:54:02;;;;;;;25.37;6.50;;;;;;;-140.05;100.00;61859.38;5029091;28;20452;-63
2020/12/31 02:56:28;;;;;;;17.43;5.60;;;;;;;-140.05;100.00;61859.38;5029824;28;20431;-64
2020/12/31 02:58:55;;;;;;;19.83;5.30;;;;;;;-140.05;100.00;61859.38;5028824;28;20566;-63
2020/12/31 03:01:22;;;;;;;20.53;6.20;;;;;;;-140.05;100.00;61859.38;5033310;28;20447;-63
2020/12/31 03:03:50;;;;;;;15.47;5.70;;;;;;;-140.05;100.00;61859.38;5032602;28;20455;-65
2020/12/31 03:06:19;;;;;;;18.23;5.53;;;;;;;-140.05;100.00;61859.38;5029070;28;20969;-63
2020/12/31 03:08:46;;;;;;;14.43;4.70;;;;;;;-140.05;100.00;61859.38;5028778;28;20485;-64
2020/12/31 03:11:16;;;;;;;21.83;5.47;;;;;;;-140.05;100.00;61859.38;5028870;28;21040;-64
2020/12/31 03:13:42;;;;;;;16.40;5.10;;;;;;;-140.05;100.00;61859.38;5028911;28;20440;-67
2020/12/31 03:16:09;;;;;;;27.57;6.50;;;;;;;-140.05;100.00;61859.38;5029237;28;20454;-66
2020/12/31 03:18:35;;;;;;;20.33;5.13;;;;;;;-140.05;100.00;61859.38;5028812;28;20443;-66
2020/12/31 03:21:02;;;;;;;20.47;5.13;;;;;;;-140.05;100.00;61859.38;5029302;28;20833;-64
2020/12/31 03:23:28;;;;;;;16.03;4.57;;;;;;;-140.05;100.00;61859.38;5032656;28;20460;-62
2020/12/31 03:25:54;;;;;;;17.47;7.03;;;;;;;-140.05;100.00;61859.38;5032375;28;20438;-63
2020/12/31 03:28:21;;;;;;;17.30;4.90;;;;;;;-140.05;100.00;61859.38;5032871;28;20428;-64
2020/12/31 03:31:06;;;;;;;18.00;4.83;;;;;;;-140.05;100.00;61859.38;5032148;28;20476;-63
2020/12/31 03:33:33;;;;;;;18.13;4.97;;;;;;;-140.05;100.00;61859.38;5032250;28;20436;-64
2020/12/31 03:35:59;;;;;;;18.27;5.10;;;;;;;-140.05;100.00;61859.38;5031816;28;20525;-66
2020/12/31 03:38:25;;;;;;;20.13;5.20;;;;;;;-140.05;100.00;61859.38;5032668;28;20545;-63
2020/12/31 03:40:52;;;;;;;14.07;4.50;;;;;;;-140.05;100.00;61859.38;5031732;28;20533;-65
2020/12/31 03:43:19;;;;;;;14.43;4.40;;;;;;;-140.05;100.00;61859.38;5032400;28;20450;-61
2020/12/31 03:45:45;;;;;;;16.97;4.43;;;;;;;-140.05;100.00;61859.38;5032538;28;20446;-61
2020/12/31 03:48:12;;;;;;;14.53;4.47;;;;;;;-140.05;100.00;61859.38;5032212;28;20531;-67
2020/12/31 03:50:39;;;;;;;16.97;4.80;;;;;;;-140.05;100.00;61859.38;5031430;28;20470;-66
2020/12/31 03:53:06;;;;;;;17.03;4.60;;;;;;;-140.05;100.00;61859.38;5032183;28;20439;-64
2020/12/31 03:55:33;;;;;;;21.50;5.00;;;;;;;-140.05;100.00;61859.38;5031621;28;20443;-66
2020/12/31 03:58:00;;;;;;;26.30;5.43;;;;;;;-140.05;100.00;61859.38;5032076;28;20440;-62
2020/12/31 04:00:26;;;;;;;13.93;4.43;;;;;;;-140.05;100.00;61859.38;5031521;28;20924;-63
2020/12/31 04:02:52;;;;;;;19.70;4.57;;;;;;;-140.05;100.00;61859.38;5031815;28;20439;-67
2020/12/31 04:05:19;;;;;;;15.20;4.37;;;;;;;-140.05;100.00;61859.38;5031891;28;20436;-63
2020/12/31 04:07:45;;;;;;;18.63;4.50;;;;;;;-140.05;100.00;61859.38;5032198;28;20436;-62
2020/12/31 04:10:12;;;;;;;17.50;3.77;;;;;;;-140.05;100.00;61859.38;5030795;28;20490;-61
2020/12/31 04:12:38;;;;;;;19.50;5.03;;;;;;;-140.05;100.00;61859.38;5031807;28;20505;-64
2020/12/31 04:15:05;;;;;;;18.07;5.27;;;;;;;-140.05;100.00;61859.38;5031614;28;20444;-65
2020/12/31 04:17:32;;;;;;;18.80;7.10;;;;;;;-140.05;100.00;61859.38;5031663;28;20999;-66
2020/12/31 04:19:58;;;;;;;19.43;6.07;;;;;;;-140.05;100.00;61859.38;5031149;28;20443;-65
2020/12/31 04:22:25;;;;;;;19.43;5.60;;;;;;;-140.05;100.00;61859.38;5031765;28;20432;-66
2020/12/31 04:24:51;;;;;;;18.43;5.30;;;;;;;-140.05;100.00;61859.38;5031558;28;20432;-64
2020/12/31 04:27:20;;;;;;;20.80;5.60;;;;;;;-140.05;100.00;61859.38;5031653;28;20451;-62
2020/12/31 04:29:46;;;;;;;22.60;5.67;;;;;;;-140.05;100.00;61859.38;5031306;28;20531;-65
2020/12/31 04:32:13;;;;;;;17.20;5.20;;;;;;;-140.05;100.00;61859.38;5030893;28;20486;-65
2020/12/31 04:34:39;;;;;;;23.50;6.63;;;;;;;-140.05;100.00;61859.38;5031728;28;20964;-63
2020/12/31 04:37:05;;;;;;;15.43;6.00;;;;;;;-140.05;100.00;61859.38;5032005;28;20804;-62
2020/12/31 04:39:33;;;;;;;19.10;5.63;;;;;;;-140.05;100.00;61859.38;5031404;28;21071;-64
2020/12/31 04:41:59;;;;;;;20.20;5.33;;;;;;;-140.05;100.00;61859.38;5031738;28;20432;-66
2020/12/31 04:44:26;;;;;;;23.33;5.40;;;;;;;-140.05;100.00;61859.38;5030723;28;20824;-65
2020/12/31 04:46:55;;;;;;;17.70;4.87;;;;;;;-140.05;100.00;61859.38;5031186;28;20462;-64
2020/12/31 04:49:27;;;;;;;16.03;4.73;;;;;;;-140.05;100.00;61859.38;5031119;28;20461;-61
2020/12/31 04:51:55;;;;;;;15.50;4.70;;;;;;;-140.05;100.00;61859.38;5030997;28;20546;-65
2020/12/31 04:54:22;;;;;;;21.23;6.13;;;;;;;-140.05;100.00;61859.38;5030501;28;20439;-63
2020/12/31 04:56:50;;;;;;;19.83;7.23;;;;;;;-140.05;100.00;61859.38;5031226;28;20456;-63
2020/12/31 04:59:17;;;;;;;17.23;5.70;;;;;;;-140.05;100.00;61859.38;5030634;28;20526;-65
2020/12/31 05:01:45;;;;;;;23.33;7.50;;;;;;;-140.05;100.00;61859.38;5030846;28;20471;-65
2020/12/31 05:04:12;;;;;;;25.07;6.40;;;;;;;-140.05;100.00;61859.38;5030264;28;20432;-63
2020/12/31 05:06:40;;;;;;;22.00;6.97;;;;;;;-140.05;100.00;61859.38;5030967;28;20502;-60
2020/12/31 05:09:17;;;;;;;21.60;6.60;;;;;;;-140.05;100.00;61859.38;5030224;28;20443;-64
2020/12/31 05:11:52;;;;;;;22.20;7.83;;;;;;;-140.05;100.00;61859.38;5030633;28;20600;-62
2020/12/31 05:14:33;;;;;;;20.83;6.27;;;;;;;-140.05;100.00;61859.38;5030165;28;20438;-65
2020/12/31 05:17:12;;;;;;;19.73;6.60;;;;;;;-140.05;100.00;61859.38;5030950;28;20444;-64
2020/12/31 05:19:39;;;;;;;23.47;7.50;;;;;;;-140.05;100.00;61859.38;5029962;28;20543;-64
2020/12/31 05:22:17;;;;;;;19.73;7.23;;;;;;;-140.05;100.00;61859.38;5030555;28;20518;-62
2020/12/31 05:24:48;;;;;;;17.97;7.67;;;;;;;-140.05;100.00;61859.38;5029992;28;20534;-63
2020/12/31 05:27:27;;;;;;;22.93;7.53;;;;;;;-140.05;100.00;61859.38;5030158;28;20450;-62
2020/12/31 05:29:59;;;;;;;24.13;6.10;;;;;;;-140.05;100.00;61859.38;5030024;28;20836;-62
2020/12/31 05:32:28;;;;;;;20.93;6.00;;;;;;;-140.05;100.00;61859.38;5030718;28;20554;-61
2020/12/31 05:34:55;;;;;;;21.93;6.87;;;;;;;-140.05;100.00;61859.38;5030356;28;20474;-60
2020/12/31 05:37:24;;;;;;;23.20;7.00;;;;;;;-140.05;100.00;61859.38;5031538;28;20436;-64
2020/12/31 05:39:54;;;;;;;18.43;6.47;;;;;;;-140.05;100.00;61859.38;5031918;28;20860;-62
2020/12/31 05:42:22;;;;;;;21.00;6.93;;;;;;;-140.05;100.00;61859.38;5030898;28;20464;-64
2020/12/31 05:44:59;;;;;;;20.83;6.90;;;;;;;-140.05;100.00;61859.38;5029106;28;20997;-61
2020/12/31 05:47:25;;;;;;;24.70;6.97;;;;;;;-140.05;100.00;61859.38;5030570;28;20893;-66
2020/12/31 05:49:53;;;;;;;27.40;7.10;;;;;;;-140.05;100.00;61859.38;5029747;28;20433;-64
2020/12/31 05:52:36;;;;;;;26.10;6.20;;;;;;;-140.05;100.00;61859.38;5029686;28;20487;-64
2020/12/31 05:55:06;;;;;;;21.47;6.73;;;;;;;-140.05;100.00;61859.38;5029654;28;21035;-63
2020/12/31 05:57:51;;;;;;;24.43;7.77;;;;;;;-140.05;100.00;61859.38;5030283;28;20450;-63
2020/12/31 06:00:26;;;;;;;24.63;7.13;;;;;;;-140.05;100.00;61859.38;5029661;28;20513;-63
2020/12/31 06:02:54;;;;;;;23.00;6.90;;;;;;;-140.05;100.00;61859.38;5029701;28;21014;-62
2020/12/31 06:05:22;;;;;;;22.50;6.63;;;;;;;-140.05;100.00;61859.38;5029433;28;20813;-64
2020/12/31 06:07:58;;;;;;;26.40;7.80;;;;;;;-140.05;100.00;61859.38;5032295;28;20530;-64
2020/12/31 06:10:31;;;;;;;23.17;7.00;;;;;;;-140.05;100.00;61859.38;5029586;28;20431;-65
2020/12/31 06:12:59;;;;;;;19.90;7.33;;;;;;;-140.05;100.00;61859.38;5029423;28;20526;-62
2020/12/31 06:15:49;;;;;;;19.00;6.97;;;;;;;-140.05;100.00;61859.38;5029215;28;20807;-64
2020/12/31 06:18:24;;;;;;;34.80;9.17;;;;;;;-140.05;100.00;61859.38;5029277;28;20497;-65
2020/12/31 06:21:00;;;;;;;27.23;8.70;;;;;;;-140.05;100.00;61859.38;5029151;28;20475;-64
2020/12/31 06:23:45;;;;;;;22.43;7.73;;;;;;;-140.05;100.00;61859.38;5027884;28;20555;-64
2020/12/31 06:26:13;;;;;;;35.13;8.90;;;;;;;-140.05;100.00;61859.38;5029677;28;20455;-63
2020/12/31 06:28:46;;;;;;;24.90;8.83;;;;;;;-140.05;100.00;61859.38;5029405;28;20436;-63
2020/12/31 06:31:12;;;;;;;29.30;9.10;;;;;;;-140.05;100.00;61859.38;5029330;28;20879;-65
2020/12/31 06:33:47;;;;;;;32.87;9.90;;;;;;;-140.05;100.00;61859.38;5029309;28;20448;-65
2020/12/31 06:36:15;;;;;;;29.77;9.60;;;;;;;-140.05;100.00;61859.38;5029136;28;20478;-62
2020/12/31 06:38:47;;;;;;;29.53;10.10;;;;;;;-140.05;100.00;61859.38;5029424;28;20945;-63
2020/12/31 06:41:32;;;;;;;40.90;16.20;;;;;;;-140.05;100.00;61859.38;5029377;28;20534;-64
2020/12/31 06:44:10;;;;;;;33.70;16.10;;;;;;;-140.05;100.00;61859.38;5028665;28;20506;-64
2020/12/31 06:46:44;;;;;;;37.73;14.47;;;;;;;-140.05;100.00;61859.38;5029222;28;20542;-64
2020/12/31 06:49:11;;;;;;;33.83;13.77;;;;;;;-140.05;100.00;61859.38;5028677;28;20896;-65
2020/12/31 06:51:38;;;;;;;34.23;13.93;;;;;;;-140.05;100.00;61859.38;5028934;28;20483;-65
2020/12/31 06:54:05;;;;;;;30.63;13.57;;;;;;;-140.05;100.00;61859.38;5028568;28;20962;-65
2020/12/31 06:56:49;;;;;;;34.37;12.93;;;;;;;-140.05;100.00;61859.38;5032338;28;20432;-64
2020/12/31 06:59:34;;;;;;;24.47;12.97;;;;;;;-140.05;100.00;61859.38;5032441;28;20447;-65
2020/12/31 07:02:22;;;;;;;27.13;11.23;;;;;;;-140.05;100.00;61859.38;5033116;28;20969;-61
2020/12/31 07:04:49;;;;;;;39.20;12.00;;;;;;;-140.05;100.00;61859.38;5032851;28;20450;-64
2020/12/31 07:07:18;;;;;;;28.57;9.87;;;;;;;-140.05;100.00;61859.38;5033230;28;20424;-64
2020/12/31 07:09:54;;;;;;;23.03;8.70;;;;;;;-140.05;100.00;61859.38;5032438;28;20451;-65
2020/12/31 07:12:35;;;;;;;18.50;7.70;;;;;;;-140.05;100.00;61859.38;5033078;28;20514;-69
2020/12/31 07:15:07;;;;;;;23.57;7.70;;;;;;;-140.05;100.00;61859.38;5032569;28;20486;-63
2020/12/31 07:17:40;;;;;;;19.87;7.57;;;;;;;-140.05;100.00;61859.38;5028419;28;20452;-70
2020/12/31 07:20:09;;;;;;;29.30;9.13;;;;;;;-140.05;100.00;61859.38;5038611;28;20446;-68
2020/12/31 07:22:38;;;;;;;28.37;8.13;;;;;;;-140.05;100.00;61859.38;5045800;28;20444;-64
2020/12/31 07:25:15;;;;;;;22.10;7.83;;;;;;;-140.05;100.00;61859.38;5047010;28;20446;-66
2020/12/31 07:27:47;;;;;;;24.90;6.83;;;;;;;-140.05;100.00;61859.38;5052064;28;20461;-65
2020/12/31 07:30:21;;;;;;;18.30;6.07;;;;;;;-140.05;100.00;61859.38;5050030;28;20477;-65
2020/12/31 07:32:56;;;;;;;21.80;5.77;;;;;;;-140.05;100.00;61859.38;5031284;28;20515;-68
2020/12/31 07:35:23;;;;;;;19.80;6.00;;;;;;;-140.05;100.00;61859.38;5029140;28;20905;-64
2020/12/31 07:37:51;;;;;;;123.13;80.47;;;;;;;-140.05;100.00;61859.38;5032212;28;20525;-68
2020/12/31 07:40:29;;;;;;;105.87;67.97;;;;;;;-140.05;100.00;61859.38;5032280;28;20448;-66
2020/12/31 07:42:56;;;;;;;52.13;31.00;;;;;;;-140.05;100.00;61859.38;5032716;28;20451;-68
2020/12/31 07:45:25;;;;;;;23.30;11.77;;;;;;;-140.05;100.00;61859.38;5031631;28;20538;-69
2020/12/31 07:47:53;;;;;;;38.93;16.70;;;;;;;-140.05;100.00;61859.38;5031983;28;20488;-66
2020/12/31 07:50:20;;;;;;;132.13;78.47;;;;;;;-140.05;100.00;61859.38;5031330;28;20954;-69
2020/12/31 07:52:48;;;;;;;221.53;150.17;;;;;;;-140.05;100.00;61859.38;5031809;28;20548;-70
2020/12/31 07:55:16;;;;;;;29.73;14.33;;;;;;;-140.05;100.00;61859.38;5030338;28;20547;-73
2020/12/31 07:57:43;;;;;;;30.13;12.03;;;;;;;-140.05;100.00;61859.38;5030235;28;20444;-69
2020/12/31 08:00:18;;;;;;;33.00;12.17;;;;;;;-140.05;100.00;61859.38;5031794;28;20447;-70
2020/12/31 08:02:51;;;;;;;27.23;12.00;;;;;;;-140.05;100.00;61859.38;5027671;28;20451;-73
2020/12/31 08:05:19;;;;;;;25.77;11.23;;;;;;;-140.05;100.00;61859.38;5032294;28;20471;-80
2020/12/31 08:07:50;;;;;;;27.40;9.77;;;;;;;-140.05;100.00;61859.38;5032013;28;20420;-74
2020/12/31 08:10:30;;;;;;;24.57;9.80;;;;;;;-140.05;100.00;61859.38;5013234;28;20491;-74
2020/12/31 08:12:58;;;;;;;34.93;12.30;;;;;;;-140.05;100.00;61859.38;5027703;28;20486;-73
2020/12/31 08:15:26;;;;;;;310.93;213.50;;;;;;;-140.05;100.00;61859.38;5051116;28;20443;-69
2020/12/31 08:17:58;;;;;;;134.53;83.23;;;;;;;-140.05;100.00;61859.38;5045240;28;20986;-76
2020/12/31 08:20:28;;;;;;;25.40;11.50;;;;;;;-140.05;100.00;61859.38;5031415;28;20436;-74
2020/12/31 08:23:00;;;;;;;33.40;14.03;;;;;;;-140.05;100.00;61859.38;5027772;28;20529;-75
2020/12/31 08:25:33;;;;;;;29.53;13.23;;;;;;;-140.05;100.00;61859.38;5032227;28;20558;-80
2020/12/31 08:28:04;;;;;;;28.17;13.90;;;;;;;-140.05;100.00;61859.38;5032736;28;21020;-71
2020/12/31 08:30:32;;;;;;;32.00;11.90;;;;;;;-140.05;100.00;61859.38;5031797;28;20454;-71
2020/12/31 08:33:00;;;;;;;30.50;12.53;;;;;;;-140.05;100.00;61859.38;5032103;28;20519;-74
2020/12/31 08:35:53;;;;;;;29.07;14.27;;;;;;;-140.05;100.00;61859.38;5030542;28;20510;-72
2020/12/31 08:38:23;;;;;;;33.53;17.70;;;;;;;-140.05;100.00;61859.38;5030609;28;20452;-72
2020/12/31 08:40:58;;;;;;;38.43;20.30;;;;;;;-140.05;100.00;61859.38;5031299;28;20494;-73
2020/12/31 08:43:38;;;;;;;40.57;21.00;;;;;;;-140.05;100.00;61859.38;5031397;28;20527;-74
2020/12/31 08:46:07;;;;;;;37.93;20.03;;;;;;;-140.05;100.00;61859.38;5030584;28;20451;-73
2020/12/31 08:48:37;;;;;;;44.53;22.17;;;;;;;-140.05;100.00;61859.38;5031544;28;21001;-77
2020/12/31 08:51:10;;;;;;;35.43;18.30;;;;;;;-140.05;100.00;61859.38;5031477;28;21033;-79
2020/12/31 08:54:01;;;;;;;32.33;16.03;;;;;;;-140.05;100.00;61859.38;5030979;28;20494;-73
2020/12/31 08:56:32;;;;;;;27.53;14.43;;;;;;;-140.05;100.00;61859.38;5032422;28;20857;-76
2020/12/31 08:59:12;;;;;;;30.10;14.23;;;;;;;-140.05;100.00;61859.38;5030761;28;20506;-74
2020/12/31 09:01:41;;;;;;;25.90;13.50;;;;;;;-140.05;100.00;61859.38;5031206;28;20478;-75
2020/12/31 09:04:19;;;;;;;28.90;12.03;;;;;;;-140.05;100.00;61859.38;5030885;28;20436;-69
2020/12/31 09:06:47;;;;;;;128.07;81.50;;;;;;;-140.05;100.00;61859.38;5031456;28;20535;-70
2020/12/31 09:09:17;;;;;;;175.93;123.30;;;;;;;-140.05;100.00;61859.38;5030499;28;20515;-74
2020/12/31 09:12:03;;;;;;;29.03;17.20;;;;;;;-140.05;100.00;61859.38;5035332;28;20566;-70
2020/12/31 09:14:31;;;;;;;24.47;11.20;;;;;;;-140.05;100.00;61859.38;5014794;28;20444;-73
2020/12/31 09:16:58;;;;;;;24.07;11.27;;;;;;;-140.05;100.00;61859.38;5025844;28;20463;-71
2020/12/31 09:19:25;;;;;;;24.30;11.87;;;;;;;-140.05;100.00;61859.38;5010118;28;20791;-69
2020/12/31 09:21:52;;;;;;;29.90;12.27;;;;;;;-140.05;100.00;61859.38;5021084;28;20451;-72
2020/12/31 09:24:23;;;;;;;27.10;12.17;;;;;;;-140.05;100.00;61859.38;5033820;28;20447;-74
2020/12/31 09:26:54;;;;;;;28.90;12.43;;;;;;;-140.05;100.00;61859.38;5030562;28;20490;-73
2020/12/31 09:29:21;;;;;;;24.30;12.43;;;;;;;-140.05;100.00;61859.38;5032616;28;20489;-73
2020/12/31 09:31:47;;;;;;;23.83;12.20;;;;;;;-140.05;100.00;61859.38;5029828;28;20605;-70
2020/12/31 09:34:14;;;;;;;26.17;13.83;;;;;;;-140.05;100.00;61859.38;5029213;28;20468;-70
2020/12/31 09:36:41;;;;;;;26.57;13.93;;;;;;;-140.05;100.00;61859.38;5029734;28;20443;-69
2020/12/31 09:39:08;;;;;;;30.07;15.33;;;;;;;-140.05;100.00;61859.38;5029064;28;20526;-67
2020/12/31 09:41:35;;;;;;;24.00;11.87;;;;;;;-140.05;100.00;61859.38;5029979;28;20431;-68
2020/12/31 09:44:02;;;;;;;21.03;9.70;;;;;;;-140.05;100.00;61859.38;5030101;28;20435;-70
2020/12/31 09:46:28;;;;;;;93.87;64.57;;;;;;;-140.05;100.00;61859.38;5029623;28;20826;-67
2020/12/31 09:48:55;;;;;;;42.83;25.97;;;;;;;-140.05;100.00;61859.38;5029370;28;20440;-67
2020/12/31 09:51:23;;;;;;;19.17;9.67;;;;;;;-140.05;100.00;61859.38;5030710;28;20558;-67
2020/12/31 09:53:52;;;;;;;17.77;8.50;;;;;;;-140.05;100.00;61859.38;5030046;28;20485;-64
2020/12/31 09:56:19;;;;;;;18.50;8.23;;;;;;;-140.05;100.00;61859.38;5031905;28;20866;-66
2020/12/31 09:58:46;;;;;;;16.87;7.27;;;;;;;-140.05;100.00;61859.38;5036372;28;20531;-65
2020/12/31 10:01:15;;;;;;;18.93;6.87;;;;;;;-140.05;100.00;61859.38;5032124;28;20486;-63
2020/12/31 10:03:41;;;;;;;14.80;6.50;;;;;;;-140.05;100.00;61859.38;5029416;28;20476;-66
2020/12/31 10:06:08;;;;;;;18.97;6.17;;;;;;;-140.05;100.00;61859.38;5029675;28;20487;-68
2020/12/31 10:08:34;;;;;;;14.53;5.40;;;;;;;-140.05;100.00;61859.38;5032054;28;20443;-68
2020/12/31 10:11:02;;;;;;;12.33;5.40;;;;;;;-140.05;100.00;61859.38;5029210;28;21291;-66
2020/12/31 10:13:28;;;;;;;12.33;3.83;;;;;;;-140.05;100.00;61859.38;5039603;28;21124;-64
2020/12/31 10:15:59;;;;;;;19.13;7.97;;;;;;;-140.05;100.00;61859.38;5049129;28;20431;-64
2020/12/31 10:18:25;;;;;;;20.50;8.27;;;;;;;-140.05;100.00;61859.38;5049653;28;20485;-67
2020/12/31 10:20:52;;;;;;;20.13;8.43;;;;;;;-140.05;100.00;61859.38;5050043;28;20485;-64
2020/12/31 10:23:19;;;;;;;17.83;7.90;;;;;;;-140.05;100.00;61859.38;5050776;28;20443;-69
2020/12/31 10:25:47;;;;;;;19.77;8.00;;;;;;;-140.05;100.00;61859.38;5049982;28;20435;-66
2020/12/31 10:28:14;;;;;;;114.57;78.00;;;;;;;-140.05;100.00;61859.38;5049355;28;20534;-67
2020/12/31 10:30:41;;;;;;;74.80;50.07;;;;;;;-140.05;100.00;61859.38;5047490;28;20450;-70
2020/12/31 10:33:09;;;;;;;9.97;4.30;;;;;;;-140.05;100.00;61859.38;5048715;28;20584;-76
2020/12/31 10:35:35;;;;;;;17.77;4.17;;;;;;;-140.05;100.00;61859.38;5048004;28;20530;-71
2020/12/31 10:38:02;;;;;;;10.53;4.60;;;;;;;-140.05;100.00;61859.38;5048343;28;20944;-64
2020/12/31 10:40:29;;;;;;;13.27;5.67;;;;;;;-140.05;100.00;61859.38;5048097;28;20443;-68
2020/12/31 10:42:55;;;;;;;15.23;7.07;;;;;;;-140.05;100.00;61859.38;5048258;28;20431;-64
2020/12/31 10:45:22;;;;;;;17.70;6.73;;;;;;;-140.05;100.00;61859.38;5048941;28;20439;-64
2020/12/31 10:47:49;;;;;;;12.80;5.60;;;;;;;-140.05;100.00;61859.38;5049228;28;20497;-64
2020/12/31 10:50:15;;;;;;;15.17;5.60;;;;;;;-140.05;100.00;61859.38;5048276;28;20443;-63
2020/12/31 10:52:42;;;;;;;9.27;4.70;;;;;;;-140.05;100.00;61859.38;5048042;28;20474;-65
2020/12/31 10:55:08;;;;;;;13.63;6.20;;;;;;;-140.05;100.00;61859.38;5048605;28;20441;-66
2020/12/31 10:57:35;;;;;;;11.97;5.27;;;;;;;-140.05;100.00;61859.38;5049205;28;20892;-65
2020/12/31 11:00:02;;;;;;;11.97;5.60;;;;;;;-140.05;100.00;61859.38;5048038;28;20435;-67
2020/12/31 11:02:28;;;;;;;12.50;5.87;;;;;;;-140.05;100.00;61859.38;5048275;28;20465;-66
2020/12/31 11:04:55;;;;;;;62.33;55.13;;;;;;;-140.05;100.00;61859.38;5048534;28;20451;-65
2020/12/31 11:07:21;;;;;;;12.50;5.93;;;;;;;-140.05;100.00;61859.38;5048431;28;20945;-64